Time;durP1;ratioP1;P1;durP2;ratioP2;P2;SDS_P1;SDS_P2;PMS_P1;PMS_P2;Temp;Humidity;BMP_temperature;BMP_pressure;BME280_temperature;BME280_humidity;BME280_pressure;Samples;Min_cycle;Max_cycle;Signal;HPM_P1;HPM_P2
2021/03/03 00:01:13;;;;;;;65.72;31.83;;;2.30;99.90;;;;;;4175237;28;20107;-75
2021/03/03 00:03:14;;;;;;;68.95;31.58;;;2.40;99.90;;;;;;4157822;28;20038;-75
2021/03/03 00:05:14;;;;;;;64.78;31.13;;;2.40;99.90;;;;;;4174208;28;20116;-75
2021/03/03 00:07:16;;;;;;;72.78;32.53;;;2.40;99.90;;;;;;4177506;28;20086;-75
2021/03/03 00:09:17;;;;;;;67.15;31.48;;;2.50;99.90;;;;;;4176562;28;20454;-75
2021/03/03 00:11:18;;;;;;;59.72;29.13;;;2.50;99.90;;;;;;4159812;28;20530;-75
2021/03/03 00:13:18;;;;;;;73.90;33.03;;;2.40;99.90;;;;;;4177022;28;20037;-74
2021/03/03 00:15:19;;;;;;;63.97;31.60;;;2.40;99.90;;;;;;4173236;28;20049;-75
2021/03/03 00:17:20;;;;;;;64.28;30.85;;;2.30;99.90;;;;;;4175800;28;20028;-75
2021/03/03 00:19:21;;;;;;;54.83;28.92;;;2.30;99.90;;;;;;4175979;28;20492;-75
2021/03/03 00:21:22;;;;;;;62.67;28.63;;;2.30;99.90;;;;;;4176585;28;20041;-75
2021/03/03 00:23:22;;;;;;;70.57;28.95;;;2.20;99.90;;;;;;4178772;28;20103;-75
2021/03/03 00:25:23;;;;;;;58.38;28.88;;;2.20;99.90;;;;;;4160696;28;20034;-75
2021/03/03 00:27:24;;;;;;;66.38;30.17;;;2.10;99.90;;;;;;4157385;28;20041;-75
2021/03/03 00:29:24;;;;;;;67.65;31.00;;;2.10;99.90;;;;;;4152987;28;20033;-75
2021/03/03 00:31:25;;;;;;;58.42;28.92;;;2.10;99.90;;;;;;4175629;28;20044;-75
2021/03/03 00:33:26;;;;;;;69.13;31.65;;;2.10;99.90;;;;;;4173489;28;20061;-74
2021/03/03 00:35:26;;;;;;;75.20;33.75;;;2.10;99.90;;;;;;4159669;28;20045;-76
2021/03/03 00:37:27;;;;;;;66.22;29.67;;;2.10;99.90;;;;;;4177454;28;20519;-75
2021/03/03 00:39:28;;;;;;;68.88;31.08;;;2.20;99.90;;;;;;4177065;28;20032;-75
2021/03/03 00:41:29;;;;;;;63.35;30.95;;;2.20;99.90;;;;;;4189450;28;20064;-75
2021/03/03 00:43:30;;;;;;;68.47;31.10;;;2.20;99.90;;;;;;4172030;28;20075;-75
2021/03/03 00:45:31;;;;;;;68.90;31.70;;;2.10;99.90;;;;;;4177582;28;20033;-75
2021/03/03 00:47:32;;;;;;;60.38;28.80;;;2.10;99.90;;;;;;4168824;28;20029;-75
2021/03/03 00:49:33;;;;;;;67.13;31.67;;;2.10;99.90;;;;;;4174675;28;20470;-76
2021/03/03 00:51:34;;;;;;;66.82;28.92;;;2.10;99.90;;;;;;4168431;28;20162;-76
2021/03/03 00:53:34;;;;;;;62.58;28.98;;;2.10;99.90;;;;;;4179873;28;20041;-76
2021/03/03 00:55:35;;;;;;;62.50;30.42;;;2.00;99.90;;;;;;4179240;28;20522;-75
2021/03/03 00:57:38;;;;;;;58.28;29.80;;;2.00;99.90;;;;;;4178684;28;20562;-75
2021/03/03 00:59:39;;;;;;;70.10;30.75;;;2.00;99.90;;;;;;4180575;28;20044;-74
2021/03/03 01:01:40;;;;;;;66.22;30.63;;;2.10;99.90;;;;;;4178231;28;20041;-75
2021/03/03 01:03:41;;;;;;;62.00;29.13;;;2.10;99.90;;;;;;4178749;28;20131;-75
2021/03/03 01:05:43;;;;;;;70.28;32.00;;;2.10;99.90;;;;;;4179672;28;20084;-75
2021/03/03 01:07:43;;;;;;;66.25;29.52;;;2.10;99.90;;;;;;4178857;28;20034;-74
2021/03/03 01:09:44;;;;;;;74.88;30.38;;;2.10;99.90;;;;;;4179321;28;20227;-75
2021/03/03 01:11:45;;;;;;;62.95;29.58;;;2.10;99.90;;;;;;4180142;28;20053;-75
2021/03/03 01:13:45;;;;;;;66.68;29.98;;;2.20;99.90;;;;;;4178587;28;20032;-74
2021/03/03 01:15:47;;;;;;;61.10;31.40;;;2.20;99.90;;;;;;4176702;28;20041;-74
2021/03/03 01:17:48;;;;;;;79.75;34.40;;;2.20;99.90;;;;;;4179257;28;20033;-75
2021/03/03 01:19:49;;;;;;;71.18;31.63;;;2.40;99.90;;;;;;4177398;28;20082;-75
2021/03/03 01:21:50;;;;;;;69.32;32.35;;;2.50;99.90;;;;;;4176718;28;20041;-75
2021/03/03 01:23:50;;;;;;;73.13;30.30;;;2.60;99.90;;;;;;4177939;28;20124;-75
2021/03/03 01:25:52;;;;;;;65.97;28.85;;;2.70;99.90;;;;;;4177747;28;20037;-75
2021/03/03 01:27:52;;;;;;;67.63;29.92;;;2.70;99.90;;;;;;4151515;28;20549;-75
2021/03/03 01:29:53;;;;;;;55.55;30.88;;;2.80;99.90;;;;;;4189039;28;20056;-75
2021/03/03 01:31:54;;;;;;;61.47;31.25;;;2.80;99.90;;;;;;4174909;28;20056;-74
2021/03/03 01:33:55;;;;;;;53.10;28.77;;;2.80;99.90;;;;;;4170830;28;20439;-74
2021/03/03 01:35:57;;;;;;;65.75;30.77;;;2.70;99.90;;;;;;4175050;28;20067;-74
2021/03/03 01:37:57;;;;;;;61.92;28.95;;;2.70;99.90;;;;;;4163556;28;20037;-75
2021/03/03 01:39:58;;;;;;;60.22;28.33;;;2.70;99.90;;;;;;4176503;28;20033;-74
2021/03/03 01:41:59;;;;;;;60.15;27.88;;;2.70;99.90;;;;;;4172189;28;20057;-74
2021/03/03 01:44:00;;;;;;;57.28;28.50;;;2.70;99.90;;;;;;4191267;28;20029;-74
2021/03/03 01:46:00;;;;;;;58.03;26.92;;;2.60;99.90;;;;;;4177528;28;20486;-74
2021/03/03 01:48:02;;;;;;;61.58;27.45;;;2.60;99.90;;;;;;4173985;28;20037;-74
2021/03/03 01:50:08;;;;;;;62.30;28.02;;;2.60;99.90;;;;;;4177973;28;20076;-74
2021/03/03 01:52:09;;;;;;;55.08;27.02;;;2.50;99.90;;;;;;4194180;28;20036;-75
2021/03/03 01:54:10;;;;;;;55.85;27.75;;;2.50;99.90;;;;;;4175535;28;20111;-75
2021/03/03 01:56:11;;;;;;;55.15;28.13;;;2.50;99.90;;;;;;4178514;28;20029;-75
2021/03/03 01:58:12;;;;;;;60.55;27.65;;;2.40;99.90;;;;;;4166288;28;20041;-75
2021/03/03 02:00:14;;;;;;;61.90;27.27;;;2.40;99.90;;;;;;4176124;28;20041;-74
2021/03/03 02:02:15;;;;;;;60.38;27.33;;;2.40;99.90;;;;;;4169542;28;20120;-75
2021/03/03 02:04:16;;;;;;;58.45;27.20;;;2.30;99.90;;;;;;4178420;28;20572;-74
2021/03/03 02:06:52;;;;;;;64.85;29.92;;;2.30;99.90;;;;;;4172156;28;20037;-74
2021/03/03 02:09:47;;;;;;;56.13;27.77;;;2.20;99.90;;;;;;4174811;28;20132;-75
2021/03/03 02:12:02;;;;;;;55.25;26.85;;;2.10;99.90;;;;;;4170087;28;20037;-75
2021/03/03 02:14:09;;;;;;;55.55;25.60;;;2.10;99.90;;;;;;4195087;28;20040;-75
2021/03/03 02:16:12;;;;;;;52.55;25.80;;;2.10;99.90;;;;;;4195448;28;20074;-75
2021/03/03 02:18:14;;;;;;;56.55;25.23;;;2.00;99.90;;;;;;4177842;28;20065;-75
2021/03/03 02:20:17;;;;;;;54.47;26.27;;;2.00;99.90;;;;;;4161052;28;20063;-75
2021/03/03 02:22:54;;;;;;;55.25;27.63;;;2.00;99.90;;;;;;4178291;28;20396;-75
2021/03/03 02:25:20;;;;;;;53.72;26.33;;;2.00;99.90;;;;;;4177530;28;20051;-75
2021/03/03 02:27:22;;;;;;;48.08;25.33;;;2.00;99.90;;;;;;4174998;28;20033;-75
2021/03/03 02:29:28;;;;;;;57.33;25.75;;;1.90;99.90;;;;;;4190089;28;20426;-75
2021/03/03 02:31:31;;;;;;;51.50;24.83;;;1.80;99.90;;;;;;4173914;28;20029;-75
2021/03/03 02:33:33;;;;;;;54.78;24.95;;;1.80;99.90;;;;;;4173843;28;20084;-75
2021/03/03 02:35:34;;;;;;;58.08;27.23;;;1.80;99.90;;;;;;4171642;28;20040;-75
2021/03/03 02:37:35;;;;;;;58.35;27.02;;;1.70;99.90;;;;;;4175175;28;20130;-75
2021/03/03 02:39:36;;;;;;;67.18;27.65;;;1.80;99.90;;;;;;4175010;28;20055;-75
2021/03/03 02:41:40;;;;;;;65.72;29.73;;;1.80;99.90;;;;;;4178136;28;20530;-75
2021/03/03 02:43:42;;;;;;;61.28;29.08;;;1.90;99.90;;;;;;4175494;28;20052;-75
2021/03/03 02:45:47;;;;;;;57.58;28.65;;;2.00;99.90;;;;;;4194456;28;20045;-75
2021/03/03 02:47:50;;;;;;;63.10;29.10;;;1.90;99.90;;;;;;4177302;28;20044;-75
2021/03/03 02:49:51;;;;;;;67.97;32.70;;;1.90;99.90;;;;;;4178239;28;20045;-75
2021/03/03 02:51:52;;;;;;;61.50;29.92;;;1.90;99.90;;;;;;4173688;28;20045;-75
2021/03/03 02:53:53;;;;;;;57.42;29.25;;;2.00;99.90;;;;;;4175226;28;20083;-75
2021/03/03 02:55:54;;;;;;;65.65;31.48;;;2.00;99.90;;;;;;4177341;28;20036;-75
2021/03/03 02:58:01;;;;;;;62.53;31.02;;;2.00;99.90;;;;;;4176993;28;20128;-75
2021/03/03 03:00:03;;;;;;;62.55;28.85;;;2.00;99.90;;;;;;4160838;28;20041;-76
2021/03/03 03:02:13;;;;;;;74.03;33.70;;;2.00;99.90;;;;;;4161050;28;20044;-75
2021/03/03 03:04:17;;;;;;;71.78;33.65;;;2.00;99.90;;;;;;4179390;28;20168;-76
2021/03/03 03:06:23;;;;;;;77.60;33.33;;;2.00;99.90;;;;;;4158822;28;20046;-76
2021/03/03 03:08:26;;;;;;;74.97;33.88;;;2.10;99.90;;;;;;4176900;28;20037;-76
2021/03/03 03:10:28;;;;;;;70.47;31.83;;;2.20;99.90;;;;;;4193393;28;20033;-75
2021/03/03 03:12:29;;;;;;;74.03;31.65;;;2.10;99.90;;;;;;4191509;28;20032;-75
2021/03/03 03:14:32;;;;;;;63.33;30.30;;;2.00;99.90;;;;;;4177460;28;20530;-75
2021/03/03 03:16:37;;;;;;;64.63;31.55;;;2.00;99.90;;;;;;4161409;28;20144;-75
2021/03/03 03:18:51;;;;;;;59.40;30.25;;;1.90;99.90;;;;;;4172464;28;20103;-75
2021/03/03 03:20:53;;;;;;;66.15;31.73;;;1.90;99.90;;;;;;4172851;28;20041;-75
2021/03/03 03:22:55;;;;;;;67.45;30.67;;;1.80;99.90;;;;;;4160534;28;20072;-75
2021/03/03 03:24:58;;;;;;;66.38;31.42;;;1.80;99.90;;;;;;4178668;28;20127;-75
2021/03/03 03:27:01;;;;;;;68.57;32.20;;;1.90;99.90;;;;;;4175976;28;20073;-75
2021/03/03 03:29:04;;;;;;;76.07;31.70;;;1.90;99.90;;;;;;4186385;28;20487;-75
2021/03/03 03:31:06;;;;;;;77.93;34.25;;;1.90;99.90;;;;;;4187435;28;20504;-75
2021/03/03 03:33:08;;;;;;;75.97;31.38;;;1.90;99.90;;;;;;4166360;28;20121;-75
2021/03/03 03:35:11;;;;;;;72.82;33.10;;;1.90;99.90;;;;;;4168337;28;20025;-75
2021/03/03 03:37:13;;;;;;;71.63;32.60;;;1.90;99.90;;;;;;4177268;28;20119;-75
2021/03/03 03:39:15;;;;;;;72.50;33.83;;;1.90;99.90;;;;;;4174849;28;20408;-75
2021/03/03 03:41:16;;;;;;;70.25;31.20;;;1.90;99.90;;;;;;4177416;28;20072;-75
2021/03/03 03:43:18;;;;;;;80.28;32.35;;;1.90;99.90;;;;;;4160131;28;20049;-75
2021/03/03 03:45:24;;;;;;;72.10;32.55;;;1.90;99.90;;;;;;4176429;28;20041;-75
2021/03/03 03:47:25;;;;;;;77.53;34.70;;;2.00;99.90;;;;;;4176401;28;20619;-74
2021/03/03 03:49:26;;;;;;;63.67;31.27;;;2.00;99.90;;;;;;4161115;28;20042;-76
2021/03/03 03:51:27;;;;;;;74.20;32.75;;;2.00;99.90;;;;;;4175383;28;21228;-76
2021/03/03 03:53:31;;;;;;;67.32;31.88;;;1.90;99.90;;;;;;4150289;28;20136;-75
2021/03/03 03:55:37;;;;;;;69.80;32.67;;;1.80;99.90;;;;;;4172718;28;20037;-74
2021/03/03 03:57:51;;;;;;;69.57;30.58;;;1.80;99.90;;;;;;4171878;28;20063;-75
2021/03/03 03:59:52;;;;;;;75.72;31.92;;;1.80;99.90;;;;;;4174713;28;20040;-75
2021/03/03 04:01:53;;;;;;;81.80;36.63;;;1.80;99.90;;;;;;4176797;28;20041;-75
2021/03/03 04:03:53;;;;;;;73.30;34.42;;;1.80;99.90;;;;;;4170427;28;20092;-76
2021/03/03 04:05:54;;;;;;;78.25;35.42;;;1.90;99.90;;;;;;4173760;28;20396;-75
2021/03/03 04:07:55;;;;;;;86.45;36.95;;;1.90;99.90;;;;;;4170111;28;21866;-75
2021/03/03 04:09:56;;;;;;;70.47;35.35;;;1.90;99.90;;;;;;4188025;28;20107;-75
2021/03/03 04:11:58;;;;;;;84.40;36.38;;;1.80;99.90;;;;;;4171291;28;20036;-75
2021/03/03 04:13:58;;;;;;;88.60;39.25;;;1.80;99.90;;;;;;4191625;28;20120;-75
2021/03/03 04:15:59;;;;;;;85.75;38.45;;;1.90;99.90;;;;;;4170153;28;20111;-75
2021/03/03 04:18:00;;;;;;;85.20;36.60;;;1.90;99.90;;;;;;4170615;28;20045;-75
2021/03/03 04:20:03;;;;;;;84.45;38.70;;;2.00;99.90;;;;;;4192910;28;20391;-75
2021/03/03 04:22:03;;;;;;;81.03;36.25;;;2.00;99.90;;;;;;4167102;28;20029;-74
2021/03/03 04:24:05;;;;;;;87.00;40.15;;;2.00;99.90;;;;;;4174562;28;20033;-75
2021/03/03 04:26:07;;;;;;;72.70;34.33;;;2.00;99.90;;;;;;4177019;28;20396;-74
2021/03/03 04:28:08;;;;;;;83.70;36.53;;;2.00;99.90;;;;;;4154290;28;20045;-74
2021/03/03 04:30:13;;;;;;;79.10;36.90;;;2.00;99.90;;;;;;4176592;28;20508;-74
2021/03/03 04:32:14;;;;;;;83.93;36.90;;;2.00;99.90;;;;;;4179645;28;20408;-74
2021/03/03 04:34:15;;;;;;;72.70;34.95;;;2.10;99.90;;;;;;4162585;28;20056;-74
2021/03/03 04:36:16;;;;;;;92.25;37.50;;;2.00;99.90;;;;;;4177380;28;20091;-74
2021/03/03 04:38:17;;;;;;;83.72;36.60;;;2.00;99.90;;;;;;4179695;28;20036;-74
2021/03/03 04:40:18;;;;;;;82.22;38.53;;;2.10;99.90;;;;;;4192088;28;20032;-74
2021/03/03 04:42:19;;;;;;;81.38;35.47;;;2.10;99.90;;;;;;4178556;28;20064;-74
2021/03/03 04:44:20;;;;;;;73.10;34.63;;;2.00;99.90;;;;;;4179970;28;20036;-75
2021/03/03 04:46:21;;;;;;;74.20;34.92;;;2.00;99.90;;;;;;4195543;28;20044;-74
2021/03/03 04:48:22;;;;;;;71.97;35.35;;;2.00;99.90;;;;;;4182790;28;20037;-76
2021/03/03 04:50:23;;;;;;;75.13;35.47;;;2.00;99.90;;;;;;4180084;28;20068;-75
2021/03/03 04:52:24;;;;;;;85.15;38.15;;;2.00;99.90;;;;;;4178786;28;20040;-75
2021/03/03 04:54:24;;;;;;;91.75;38.92;;;2.00;99.90;;;;;;4177282;28;20465;-75
2021/03/03 04:56:25;;;;;;;80.85;36.47;;;2.00;99.90;;;;;;4194687;28;20044;-75
2021/03/03 04:58:26;;;;;;;91.13;39.75;;;2.00;99.90;;;;;;4174503;28;20033;-75
2021/03/03 05:00:27;;;;;;;74.45;37.08;;;2.10;99.90;;;;;;4177189;28;20148;-75
2021/03/03 05:02:28;;;;;;;80.50;37.40;;;2.10;99.90;;;;;;4179996;28;20560;-75
2021/03/03 05:04:28;;;;;;;88.38;40.90;;;2.10;99.90;;;;;;4177777;28;20119;-75
2021/03/03 05:06:29;;;;;;;97.43;41.22;;;2.10;99.90;;;;;;4178452;28;20048;-75
2021/03/03 05:08:30;;;;;;;92.55;41.65;;;2.20;99.90;;;;;;4173553;28;20038;-75
2021/03/03 05:10:31;;;;;;;99.55;41.95;;;2.20;99.90;;;;;;4150479;28;20525;-75
2021/03/03 05:12:31;;;;;;;88.50;40.33;;;2.20;99.90;;;;;;4177810;28;20063;-75
2021/03/03 05:14:32;;;;;;;78.82;36.40;;;2.20;99.90;;;;;;4172392;28;20041;-75
2021/03/03 05:16:33;;;;;;;96.05;38.83;;;2.20;99.90;;;;;;4176811;28;20067;-75
2021/03/03 05:18:34;;;;;;;83.88;38.28;;;2.20;99.90;;;;;;4177021;28;20037;-75
2021/03/03 05:20:35;;;;;;;94.18;41.63;;;2.20;99.90;;;;;;4179084;28;20128;-75
2021/03/03 05:22:36;;;;;;;89.00;42.75;;;2.20;99.90;;;;;;4177985;28;20067;-75
2021/03/03 05:24:36;;;;;;;94.28;40.95;;;2.20;99.90;;;;;;4163187;28;20120;-75
2021/03/03 05:26:37;;;;;;;86.53;40.35;;;2.20;99.90;;;;;;4174431;28;20041;-75
2021/03/03 05:28:38;;;;;;;86.93;37.33;;;2.20;99.90;;;;;;4178506;28;20044;-75
2021/03/03 05:30:38;;;;;;;82.88;40.50;;;2.20;99.90;;;;;;4178141;28;20037;-75
2021/03/03 05:32:39;;;;;;;90.32;40.30;;;2.20;99.90;;;;;;4177111;28;20495;-74
2021/03/03 05:34:40;;;;;;;90.57;40.35;;;2.20;99.90;;;;;;4163697;28;20089;-75
2021/03/03 05:36:41;;;;;;;84.60;37.72;;;2.10;99.90;;;;;;4162127;28;20575;-75
2021/03/03 05:38:42;;;;;;;92.07;40.22;;;2.10;99.90;;;;;;4154920;28;20441;-75
2021/03/03 05:40:45;;;;;;;79.07;35.78;;;2.00;99.90;;;;;;4177263;28;20724;-75
2021/03/03 05:42:46;;;;;;;84.03;38.08;;;2.10;99.90;;;;;;4177484;28;20037;-75
2021/03/03 05:44:50;;;;;;;82.38;35.33;;;2.00;99.90;;;;;;4178463;28;20045;-75
2021/03/03 05:46:51;;;;;;;;;;;2.00;99.90;;;;;;4173113;28;20042;-75
2021/03/03 05:48:55;;;;;;;80.30;36.67;;;2.00;99.90;;;;;;4151988;28;19921;-75
2021/03/03 05:50:57;;;;;;;91.03;39.47;;;1.90;99.90;;;;;;4159276;28;20053;-75
2021/03/03 05:52:59;;;;;;;83.07;37.30;;;1.90;99.90;;;;;;4178521;28;20080;-75
2021/03/03 05:55:05;;;;;;;80.50;36.28;;;1.80;99.90;;;;;;4178838;28;20064;-75
2021/03/03 05:57:07;;;;;;;81.88;36.30;;;1.80;99.90;;;;;;4178234;28;20033;-75
2021/03/03 05:59:11;;;;;;;70.82;35.00;;;1.80;99.90;;;;;;4176337;28;20101;-75
2021/03/03 06:01:12;;;;;;;81.30;36.75;;;1.70;99.90;;;;;;4175987;28;20033;-75
2021/03/03 06:03:15;;;;;;;84.70;37.55;;;1.70;99.90;;;;;;4172625;28;20069;-75
2021/03/03 06:05:16;;;;;;;94.40;41.22;;;1.70;99.90;;;;;;4177055;28;20040;-75
2021/03/03 06:07:17;;;;;;;87.38;40.70;;;1.70;99.90;;;;;;4173301;28;20120;-75
2021/03/03 06:09:19;;;;;;;81.20;36.33;;;1.80;99.90;;;;;;4176997;28;20065;-75
2021/03/03 06:11:20;;;;;;;93.28;38.40;;;1.80;99.90;;;;;;4177321;28;20129;-75
2021/03/03 06:13:21;;;;;;;87.78;38.42;;;1.90;99.90;;;;;;4175958;28;20102;-75
2021/03/03 06:15:23;;;;;;;89.90;40.10;;;1.90;99.90;;;;;;4174062;28;20128;-75
2021/03/03 06:17:24;;;;;;;82.97;39.83;;;1.90;99.90;;;;;;4175458;28;20098;-75
2021/03/03 06:19:26;;;;;;;81.13;36.60;;;1.90;99.90;;;;;;4172887;28;20100;-75
2021/03/03 06:21:31;;;;;;;89.90;37.53;;;1.90;99.90;;;;;;4177771;28;20037;-75
2021/03/03 06:23:32;;;;;;;76.68;34.88;;;1.90;99.90;;;;;;4171115;28;20041;-75
2021/03/03 06:25:33;;;;;;;74.18;35.10;;;1.90;99.90;;;;;;4175266;28;20594;-74
2021/03/03 06:27:39;;;;;;;80.10;37.13;;;2.00;99.90;;;;;;4176714;28;20076;-75
2021/03/03 06:29:39;;;;;;;69.25;33.92;;;2.00;99.90;;;;;;4175975;28;20054;-75
2021/03/03 06:31:41;;;;;;;85.57;37.03;;;2.00;99.90;;;;;;4159782;28;20045;-76
2021/03/03 06:33:42;;;;;;;81.82;38.15;;;2.10;99.90;;;;;;4161626;28;20045;-76
2021/03/03 06:35:47;;;;;;;87.63;37.40;;;2.10;99.90;;;;;;4177700;28;20119;-75
2021/03/03 06:37:55;;;;;;;77.70;36.50;;;2.20;99.90;;;;;;4165259;28;20648;-75
2021/03/03 06:40:09;;;;;;;78.80;37.63;;;2.20;99.90;;;;;;4186848;28;20043;-74
2021/03/03 06:42:24;;;;;;;77.55;35.53;;;2.20;99.90;;;;;;4173740;28;20041;-75
2021/03/03 06:44:48;;;;;;;80.78;36.80;;;2.30;99.90;;;;;;4156286;28;20041;-74
2021/03/03 06:47:08;;;;;;;70.03;32.50;;;2.30;99.90;;;;;;4192035;28;20056;-75
2021/03/03 06:49:22;;;;;;;85.80;36.95;;;2.40;99.90;;;;;;4176500;28;20045;-75
2021/03/03 06:51:32;;;;;;;77.30;36.60;;;2.40;99.90;;;;;;4158982;28;20046;-74
2021/03/03 06:53:33;;;;;;;89.90;38.17;;;2.50;99.90;;;;;;4170478;28;20075;-75
2021/03/03 06:55:49;;;;;;;97.68;43.40;;;2.50;99.90;;;;;;4176746;28;20127;-75
2021/03/03 06:57:50;;;;;;;91.90;39.50;;;2.60;99.90;;;;;;4176973;28;20044;-75
2021/03/03 06:59:51;;;;;;;83.00;37.45;;;2.70;99.90;;;;;;4177100;28;20073;-76
2021/03/03 07:01:52;;;;;;;97.78;43.92;;;2.80;99.90;;;;;;4173788;28;20087;-75
2021/03/03 07:03:53;;;;;;;106.30;44.50;;;2.90;99.90;;;;;;4185552;28;20045;-75
2021/03/03 07:05:54;;;;;;;93.30;42.53;;;3.00;99.90;;;;;;4172668;28;20061;-75
2021/03/03 07:08:04;;;;;;;88.13;38.00;;;3.00;99.90;;;;;;4170114;28;20119;-76
2021/03/03 07:10:07;;;;;;;88.50;38.65;;;3.10;99.90;;;;;;4157904;28;20079;-79
2021/03/03 07:12:13;;;;;;;90.93;41.58;;;3.20;99.90;;;;;;4175023;28;20134;-79
2021/03/03 07:14:18;;;;;;;93.88;44.42;;;3.30;99.90;;;;;;4152296;28;20034;-77
2021/03/03 07:16:20;;;;;;;92.03;42.58;;;3.40;99.90;;;;;;4177885;28;20395;-78
2021/03/03 07:18:35;;;;;;;89.78;43.50;;;3.50;99.90;;;;;;4176159;28;20033;-78
2021/03/03 07:20:44;;;;;;;91.28;44.83;;;3.60;99.90;;;;;;4172211;28;20097;-78
2021/03/03 07:22:50;;;;;;;94.68;44.88;;;3.70;99.90;;;;;;4176260;28;20416;-78
2021/03/03 07:24:53;;;;;;;87.38;44.55;;;3.90;99.90;;;;;;4176952;28;20137;-78
2021/03/03 07:26:54;;;;;;;91.13;43.83;;;4.00;99.90;;;;;;4175505;28;20037;-77
2021/03/03 07:28:55;;;;;;;94.30;45.05;;;4.10;99.90;;;;;;4167872;28;20069;-77
2021/03/03 07:30:57;;;;;;;91.28;43.80;;;4.20;99.90;;;;;;4176914;28;20091;-78
2021/03/03 07:32:59;;;;;;;95.30;46.40;;;4.40;99.90;;;;;;4174413;28;20045;-78
2021/03/03 07:35:01;;;;;;;106.90;46.60;;;4.50;99.90;;;;;;4193235;28;20588;-78
2021/03/03 07:37:03;;;;;;;95.93;46.53;;;4.60;99.90;;;;;;4159057;28;20564;-78
2021/03/03 07:39:07;;;;;;;92.50;45.17;;;4.70;99.90;;;;;;4156979;28;20038;-78
2021/03/03 07:41:12;;;;;;;86.93;44.55;;;4.80;99.90;;;;;;4175170;28;20032;-78
2021/03/03 07:43:18;;;;;;;96.53;44.55;;;5.00;99.90;;;;;;4152724;28;20454;-77
2021/03/03 07:45:20;;;;;;;86.35;46.42;;;5.10;99.90;;;;;;4152095;28;20043;-78
2021/03/03 07:47:27;;;;;;;86.30;44.90;;;5.20;99.90;;;;;;4174951;28;20048;-79
2021/03/03 07:49:31;;;;;;;80.00;44.63;;;5.00;99.90;;;;;;4176231;28;20029;-78
2021/03/03 07:51:33;;;;;;;83.13;45.95;;;5.40;99.90;;;;;;4169306;28;20037;-78
2021/03/03 07:53:40;;;;;;;84.57;43.17;;;5.50;99.90;;;;;;4188923;28;20044;-77
2021/03/03 07:55:41;;;;;;;76.18;41.22;;;5.60;99.90;;;;;;4186708;28;20570;-77
2021/03/03 07:57:49;;;;;;;66.78;40.28;;;5.80;99.90;;;;;;4169361;28;20041;-77
2021/03/03 07:59:52;;;;;;;77.38;40.65;;;5.80;99.90;;;;;;4175152;28;20048;-77
2021/03/03 08:01:53;;;;;;;76.53;42.83;;;6.00;99.90;;;;;;4184507;28;20091;-77
2021/03/03 08:03:54;;;;;;;87.15;43.78;;;6.10;99.90;;;;;;4171289;28;20054;-76
2021/03/03 08:05:54;;;;;;;73.00;39.33;;;6.20;99.90;;;;;;4173474;28;20127;-77
2021/03/03 08:08:13;;;;;;;72.03;40.20;;;6.30;99.90;;;;;;4150332;28;20068;-78
2021/03/03 08:10:14;;;;;;;74.20;39.70;;;6.40;99.90;;;;;;4192383;28;20380;-78
2021/03/03 08:12:15;;;;;;;59.58;37.78;;;6.60;99.90;;;;;;4178173;28;20124;-78
2021/03/03 08:14:37;;;;;;;59.92;36.13;;;6.70;99.90;;;;;;4192593;28;20381;-78
2021/03/03 08:16:55;;;;;;;63.03;36.70;;;6.90;99.90;;;;;;4177298;28;20041;-78
2021/03/03 08:18:56;;;;;;;66.57;38.15;;;7.10;99.90;;;;;;4177263;28;20515;-77
2021/03/03 08:21:21;;;;;;;61.40;38.50;;;7.30;99.90;;;;;;4177690;28;20037;-77
2021/03/03 08:23:34;;;;;;;64.78;37.75;;;7.50;99.90;;;;;;4166695;28;20076;-76
2021/03/03 08:25:53;;;;;;;56.20;36.78;;;7.70;99.90;;;;;;4173930;28;20578;-77
2021/03/03 08:27:54;;;;;;;63.90;40.17;;;7.90;99.90;;;;;;4193925;28;20048;-77
2021/03/03 08:30:25;;;;;;;60.40;39.15;;;8.10;99.90;;;;;;4176473;28;20057;-77
2021/03/03 08:32:26;;;;;;;53.03;37.47;;;8.20;99.90;;;;;;4168659;28;20599;-77
2021/03/03 08:34:52;;;;;;;68.10;38.80;;;8.30;99.90;;;;;;4176871;28;20411;-77
2021/03/03 08:36:55;;;;;;;59.50;39.13;;;8.40;99.90;;;;;;4176551;28;20041;-76
2021/03/03 08:38:56;;;;;;;60.80;38.38;;;8.50;99.90;;;;;;4172507;28;20868;-77
2021/03/03 08:41:15;;;;;;;61.90;37.28;;;8.70;99.90;;;;;;4172519;28;20029;-76
2021/03/03 08:43:36;;;;;;;59.78;36.35;;;8.90;99.90;;;;;;4166980;28;20396;-78
2021/03/03 08:45:36;;;;;;;54.75;37.53;;;9.10;99.90;;;;;;4160340;28;20045;-77
2021/03/03 08:47:45;;;;;;;54.42;35.60;;;9.40;99.90;;;;;;4188740;28;20036;-77
2021/03/03 08:49:45;;;;;;;53.42;34.97;;;9.50;99.90;;;;;;4173793;28;20049;-77
2021/03/03 08:51:48;;;;;;;64.05;36.85;;;9.80;99.90;;;;;;4176244;28;20044;-78
2021/03/03 08:53:53;;;;;;;52.22;34.00;;;10.00;99.90;;;;;;4159090;28;20037;-77
2021/03/03 08:55:55;;;;;;;54.28;35.47;;;10.20;99.90;;;;;;4172339;28;20409;-77
2021/03/03 08:57:56;;;;;;;58.95;38.40;;;10.40;99.90;;;;;;4163879;28;20059;-77
2021/03/03 08:59:57;;;;;;;50.65;37.95;;;10.50;99.90;;;;;;4159958;28;20089;-78
2021/03/03 09:02:13;;;;;;;51.92;37.45;;;10.70;99.90;;;;;;4179252;28;20063;-78
2021/03/03 09:04:13;;;;;;;55.45;37.65;;;10.80;99.90;;;;;;4198694;28;20124;-77
2021/03/03 09:06:21;;;;;;;54.75;40.78;;;11.00;99.90;;;;;;4175839;28;20465;-77
2021/03/03 09:08:24;;;;;;;51.22;38.83;;;11.10;99.90;;;;;;4171150;28;20392;-77
2021/03/03 09:10:30;;;;;;;51.50;41.25;;;11.10;99.90;;;;;;4161591;28;20056;-77
2021/03/03 09:12:37;;;;;;;56.15;38.70;;;11.20;99.90;;;;;;4159736;28;20060;-77
2021/03/03 09:14:41;;;;;;;53.65;39.15;;;11.20;99.90;;;;;;4164925;28;20476;-77
2021/03/03 09:17:12;;;;;;;51.63;38.17;;;11.40;99.90;;;;;;4177703;28;20540;-79
2021/03/03 09:19:15;;;;;;;56.03;39.75;;;11.50;99.90;;;;;;4168821;28;20467;-77
2021/03/03 09:21:16;;;;;;;48.97;37.80;;;11.60;99.90;;;;;;4174406;28;20034;-77
2021/03/03 09:23:25;;;;;;;54.08;39.05;;;11.60;99.90;;;;;;4183472;28;20116;-77
2021/03/03 09:25:26;;;;;;;51.70;39.28;;;11.70;99.90;;;;;;4167294;28;20665;-77
2021/03/03 09:27:26;;;;;;;49.58;38.22;;;11.90;99.90;;;;;;4191167;28;20075;-77
2021/03/03 09:29:38;;;;;;;53.47;42.10;;;12.00;99.90;;;;;;4169522;28;20037;-77
2021/03/03 09:31:39;;;;;;;55.63;40.33;;;12.00;99.90;;;;;;4191570;28;20396;-77
2021/03/03 09:33:40;;;;;;;60.97;39.83;;;12.20;99.90;;;;;;4190491;28;20530;-77
2021/03/03 09:35:41;;;;;;;56.55;41.03;;;12.30;99.90;;;;;;4175995;28;20084;-77
2021/03/03 09:37:47;;;;;;;55.05;41.53;;;12.40;99.90;;;;;;4172024;28;20037;-78
2021/03/03 09:39:58;;;;;;;58.75;39.70;;;12.40;99.90;;;;;;4172190;28;20119;-78
2021/03/03 09:42:10;;;;;;;61.08;41.38;;;12.30;99.90;;;;;;4163700;28;20041;-77
2021/03/03 09:44:11;;;;;;;59.05;42.50;;;12.30;99.90;;;;;;4163434;28;20041;-77
2021/03/03 09:46:13;;;;;;;58.47;43.65;;;12.30;99.90;;;;;;4179813;28;20063;-77
2021/03/03 09:48:14;;;;;;;59.95;44.75;;;12.20;99.90;;;;;;4162689;28;20053;-77
2021/03/03 09:50:22;;;;;;;55.35;44.53;;;12.20;99.90;;;;;;4171945;28;20388;-77
2021/03/03 09:52:33;;;;;;;58.33;43.50;;;12.30;99.90;;;;;;4170454;28;20124;-77
2021/03/03 09:54:38;;;;;;;59.42;44.80;;;12.20;99.90;;;;;;4176177;28;20041;-76
2021/03/03 09:56:39;;;;;;;62.33;45.45;;;12.20;99.90;;;;;;4172383;28;20111;-77
2021/03/03 09:58:40;;;;;;;64.85;47.85;;;12.20;99.90;;;;;;4174386;28;20049;-77
2021/03/03 10:00:41;;;;;;;63.80;47.33;;;12.10;99.90;;;;;;4158115;28;20037;-77
2021/03/03 10:02:49;;;;;;;63.75;48.30;;;12.20;99.90;;;;;;4176816;28;20049;-77
2021/03/03 10:04:51;;;;;;;67.07;47.50;;;12.40;99.90;;;;;;4165725;28;20459;-77
2021/03/03 10:06:53;;;;;;;59.38;45.30;;;12.50;99.90;;;;;;4172499;28;20045;-77
2021/03/03 10:08:54;;;;;;;63.03;47.63;;;12.70;99.90;;;;;;4156135;28;20083;-77
2021/03/03 10:10:55;;;;;;;61.55;47.55;;;12.70;99.90;;;;;;4154672;28;20120;-77
2021/03/03 10:12:56;;;;;;;64.78;48.70;;;12.80;99.90;;;;;;4154344;28;20065;-76
2021/03/03 10:15:04;;;;;;;65.07;47.65;;;12.80;99.90;;;;;;4174281;28;20029;-76
2021/03/03 10:17:04;;;;;;;58.35;48.10;;;12.90;99.90;;;;;;4173501;28;20030;-77
2021/03/03 10:19:08;;;;;;;64.00;46.95;;;12.80;99.90;;;;;;4169325;28;20506;-77
2021/03/03 10:21:16;;;;;;;63.65;49.63;;;12.80;99.90;;;;;;4173647;28;20048;-77
2021/03/03 10:23:19;;;;;;;63.20;48.65;;;12.70;99.90;;;;;;4162256;28;20046;-78
2021/03/03 10:25:34;;;;;;;70.15;50.22;;;12.70;99.90;;;;;;4186119;28;20115;-77
2021/03/03 10:27:38;;;;;;;65.00;50.63;;;12.50;99.90;;;;;;4168783;28;20127;-77
2021/03/03 10:29:39;;;;;;;63.10;48.75;;;12.40;99.90;;;;;;4160303;28;20152;-77
2021/03/03 10:31:40;;;;;;;64.25;47.22;;;12.40;99.90;;;;;;4160893;28;20045;-77
2021/03/03 10:33:45;;;;;;;64.38;50.72;;;12.50;99.90;;;;;;4149409;28;20049;-77
2021/03/03 10:35:48;;;;;;;60.13;47.83;;;12.60;99.90;;;;;;4162665;28;20566;-77